Time;durP1;ratioP1;P1;durP2;ratioP2;P2;SDS_P1;SDS_P2;PMS_P1;PMS_P2;Temp;Humidity;BMP_temperature;BMP_pressure;BME280_temperature;BME280_humidity;BME280_pressure;Samples;Min_cycle;Max_cycle;Signal;HPM_P1;HPM_P2
2021/12/01 00:00:22;;;;;;;4.43;2.78;;;9.00;99.90;;;;;;5023024;28;20519;-85
2021/12/01 00:02:55;;;;;;;3.42;2.10;;;9.00;99.90;;;;;;5036513;28;20140;-86
2021/12/01 00:05:22;;;;;;;5.28;2.40;;;9.00;99.90;;;;;;5019038;28;20120;-86
2021/12/01 00:07:49;;;;;;;5.13;1.50;;;9.00;99.90;;;;;;5024707;28;20112;-86
2021/12/01 00:10:17;;;;;;;3.17;1.98;;;9.00;99.90;;;;;;5025322;28;20076;-86
2021/12/01 00:12:43;;;;;;;3.40;2.08;;;9.00;99.90;;;;;;5016529;28;20080;-85
2021/12/01 00:15:08;;;;;;;2.85;1.65;;;9.10;99.90;;;;;;5022629;28;20592;-86
2021/12/01 00:17:34;;;;;;;2.38;1.35;;;9.00;99.90;;;;;;5022775;28;20100;-86
2021/12/01 00:20:00;;;;;;;2.55;1.80;;;9.10;99.90;;;;;;5025979;28;20029;-86
2021/12/01 00:22:27;;;;;;;1.60;1.33;;;9.10;99.90;;;;;;5022298;28;20034;-86
2021/12/01 00:24:54;;;;;;;6.05;2.10;;;9.30;99.90;;;;;;5027612;28;20045;-86
2021/12/01 00:27:19;;;;;;;2.95;2.03;;;9.10;99.90;;;;;;5021477;28;20480;-86
2021/12/01 00:29:48;;;;;;;3.45;1.80;;;9.10;99.90;;;;;;5020333;28;20068;-86
2021/12/01 00:32:14;;;;;;;7.60;2.08;;;9.10;99.90;;;;;;5037672;28;20104;-86
2021/12/01 00:34:39;;;;;;;4.22;2.35;;;9.10;99.90;;;;;;5033302;28;20042;-86
2021/12/01 00:37:05;;;;;;;4.50;2.00;;;9.10;99.90;;;;;;5037205;28;20520;-86
2021/12/01 00:39:31;;;;;;;3.63;1.90;;;9.10;99.90;;;;;;5016577;28;20048;-86
2021/12/01 00:41:58;;;;;;;4.13;2.55;;;9.10;99.90;;;;;;5025824;28;20046;-86
2021/12/01 00:44:24;;;;;;;6.95;2.17;;;9.10;99.90;;;;;;5016007;28;20053;-86
2021/12/01 00:47:04;;;;;;;2.80;2.08;;;9.10;99.90;;;;;;5018534;28;20412;-86
2021/12/01 00:49:31;;;;;;;2.17;1.35;;;9.00;99.90;;;;;;5024319;28;20134;-86
2021/12/01 00:51:57;;;;;;;3.10;1.80;;;9.00;99.90;;;;;;5021332;28;20583;-86
2021/12/01 00:54:23;;;;;;;4.45;2.00;;;9.00;99.90;;;;;;5025420;28;20048;-85
2021/12/01 00:56:49;;;;;;;3.42;2.30;;;9.00;99.90;;;;;;5031774;28;20042;-86
2021/12/01 00:59:16;;;;;;;5.35;3.00;;;9.00;99.90;;;;;;5020581;28;20057;-86
2021/12/01 01:01:43;;;;;;;5.65;2.83;;;9.00;99.90;;;;;;5024308;28;20502;-86
2021/12/01 01:04:09;;;;;;;6.25;2.90;;;9.00;99.90;;;;;;5011671;28;20128;-86
2021/12/01 01:06:37;;;;;;;2.67;1.50;;;9.00;99.90;;;;;;5020130;28;20095;-86
2021/12/01 01:09:05;;;;;;;5.95;2.83;;;9.00;99.90;;;;;;5021864;28;20546;-86
2021/12/01 01:17:06;;;;;;;6.30;2.38;;;9.00;99.90;;;;;;5026389;28;20920;-86
2021/12/01 01:19:33;;;;;;;3.83;2.33;;;9.00;99.90;;;;;;5058492;28;20038;-86
2021/12/01 01:22:00;;;;;;;4.13;2.42;;;9.00;99.90;;;;;;5027586;28;20100;-86
2021/12/01 01:24:26;;;;;;;5.15;3.08;;;9.00;99.90;;;;;;5027156;28;20038;-85
2021/12/01 01:26:52;;;;;;;8.15;2.95;;;9.00;99.90;;;;;;5056118;28;20065;-85
2021/12/01 01:29:21;;;;;;;3.95;2.67;;;8.90;99.90;;;;;;5042089;28;20053;-86
2021/12/01 01:31:53;;;;;;;5.07;2.80;;;9.00;99.90;;;;;;5022737;28;20046;-86
2021/12/01 01:34:19;;;;;;;4.22;2.63;;;8.90;99.90;;;;;;5031436;28;20044;-86
2021/12/01 01:36:45;;;;;;;3.33;2.45;;;8.90;99.90;;;;;;5023076;28;20046;-86
2021/12/01 01:39:10;;;;;;;4.30;2.95;;;8.90;99.90;;;;;;5024944;28;20041;-86
2021/12/01 01:41:36;;;;;;;2.80;1.85;;;8.90;99.90;;;;;;5023214;28;20642;-86
2021/12/01 01:44:03;;;;;;;5.45;2.35;;;9.00;99.90;;;;;;5026727;28;20137;-86
2021/12/01 01:46:33;;;;;;;5.40;2.15;;;9.00;99.90;;;;;;5033631;28;20037;-86
2021/12/01 01:49:06;;;;;;;3.70;2.03;;;9.00;99.90;;;;;;5054211;28;20033;-86
2021/12/01 01:51:33;;;;;;;4.30;2.40;;;9.00;99.90;;;;;;5036245;28;20061;-86
2021/12/01 01:53:59;;;;;;;2.35;1.58;;;9.00;99.90;;;;;;5034683;28;20041;-85
2021/12/01 01:56:26;;;;;;;1.55;1.17;;;9.00;99.90;;;;;;5033499;28;20069;-85
2021/12/01 01:58:52;;;;;;;3.30;2.00;;;9.00;99.90;;;;;;5024280;28;20058;-86
2021/12/01 02:02:04;;;;;;;2.53;1.33;;;9.00;99.90;;;;;;5023523;28;20038;-85
2021/12/01 02:04:06;;;;;;;1.17;1.08;;;9.10;99.90;;;;;;5022743;28;20051;-85
2021/12/01 02:06:32;;;;;;;2.85;1.23;;;9.10;99.90;;;;;;5027397;28;20767;-86
2021/12/01 02:08:58;;;;;;;3.60;1.13;;;9.10;99.90;;;;;;5019027;28;20041;-86
2021/12/01 02:11:27;;;;;;;2.35;1.05;;;9.10;99.90;;;;;;5024493;28;20037;-86
2021/12/01 02:13:53;;;;;;;2.10;0.95;;;9.20;99.90;;;;;;5037118;28;20041;-85
2021/12/01 02:16:20;;;;;;;1.67;1.23;;;9.20;99.90;;;;;;5018998;28;20041;-86
2021/12/01 02:18:46;;;;;;;1.17;0.70;;;9.10;99.90;;;;;;5054854;28;20721;-85
2021/12/01 02:21:17;;;;;;;1.80;1.10;;;9.20;99.90;;;;;;5039494;28;20041;-86
2021/12/01 02:23:49;;;;;;;1.20;0.80;;;9.20;99.90;;;;;;5034040;28;20669;-85
2021/12/01 02:26:20;;;;;;;2.22;1.02;;;9.20;99.90;;;;;;5021193;28;20099;-93
2021/12/01 02:28:49;;;;;;;1.70;1.00;;;9.10;99.90;;;;;;5023610;28;20044;-94
2021/12/01 02:31:16;;;;;;;0.80;0.52;;;9.20;99.90;;;;;;5025226;28;20085;-93
2021/12/01 02:33:42;;;;;;;0.75;0.70;;;9.10;99.90;;;;;;5028638;28;20077;-93
2021/12/01 02:36:14;;;;;;;5.30;1.20;;;9.20;99.90;;;;;;5045076;28;20044;-93
2021/12/01 02:38:42;;;;;;;1.58;0.70;;;9.20;99.90;;;;;;5046428;28;20052;-93
2021/12/01 02:41:09;;;;;;;4.43;1.75;;;9.20;99.90;;;;;;5035833;28;20049;-94
2021/12/01 02:43:35;;;;;;;1.88;0.90;;;9.30;99.90;;;;;;5043679;28;20041;-93
2021/12/01 02:46:02;;;;;;;1.10;0.80;;;9.30;99.90;;;;;;5044801;28;20041;-93
2021/12/01 02:48:27;;;;;;;1.38;0.88;;;9.30;99.90;;;;;;5040357;28;20037;-94
2021/12/01 02:50:53;;;;;;;0.85;0.77;;;9.30;99.90;;;;;;5027110;28;20439;-93
2021/12/01 02:53:21;;;;;;;2.33;1.38;;;9.30;99.90;;;;;;5021159;28;20046;-94
2021/12/01 02:55:58;;;;;;;4.05;0.93;;;9.30;99.90;;;;;;5028257;28;20030;-93
2021/12/01 02:58:26;;;;;;;1.58;0.95;;;9.30;99.90;;;;;;5021732;28;20090;-93
2021/12/01 03:00:54;;;;;;;3.53;1.10;;;9.30;99.90;;;;;;5027640;28;20077;-94
2021/12/01 03:03:20;;;;;;;2.35;1.27;;;9.30;99.90;;;;;;5024640;28;20042;-93
2021/12/01 03:05:47;;;;;;;2.50;1.48;;;9.30;99.90;;;;;;5027161;28;20042;-94
2021/12/01 03:08:18;;;;;;;2.95;1.33;;;9.20;99.90;;;;;;5026803;28;20103;-86
2021/12/01 03:10:46;;;;;;;2.58;1.30;;;9.20;99.90;;;;;;5019385;28;20804;-86
2021/12/01 03:13:13;;;;;;;2.45;1.50;;;9.20;99.90;;;;;;5018769;28;20104;-86
2021/12/01 03:15:39;;;;;;;1.40;1.27;;;9.20;99.90;;;;;;5020335;28;20044;-85
2021/12/01 03:18:05;;;;;;;1.63;1.52;;;9.20;99.90;;;;;;5029011;28;20535;-85
2021/12/01 03:20:31;;;;;;;1.63;1.00;;;9.20;99.90;;;;;;5023982;28;20041;-86
2021/12/01 03:22:57;;;;;;;1.77;0.85;;;9.20;99.90;;;;;;5022450;28;20482;-86
2021/12/01 03:25:23;;;;;;;2.88;1.33;;;9.20;99.90;;;;;;5026459;28;20053;-85
2021/12/01 03:27:49;;;;;;;1.13;0.82;;;9.30;99.90;;;;;;5023592;28;20034;-86
2021/12/01 03:30:16;;;;;;;1.30;0.98;;;9.30;99.90;;;;;;5019050;28;20046;-86
2021/12/01 03:32:42;;;;;;;2.75;1.40;;;9.30;99.90;;;;;;5018676;28;20845;-86
2021/12/01 03:35:13;;;;;;;1.40;0.90;;;9.30;99.90;;;;;;5032147;28;20041;-86
2021/12/01 03:37:40;;;;;;;3.42;1.13;;;9.30;99.90;;;;;;5017761;28;20030;-86
2021/12/01 03:40:07;;;;;;;2.75;1.30;;;9.30;99.90;;;;;;5035690;28;20849;-85
2021/12/01 03:42:33;;;;;;;1.35;0.88;;;9.40;99.90;;;;;;5019181;28;20542;-85
2021/12/01 03:44:59;;;;;;;1.35;0.90;;;9.40;99.90;;;;;;5022809;28;20078;-85
2021/12/01 03:47:26;;;;;;;1.17;0.80;;;9.30;99.90;;;;;;5015203;28;20053;-86
2021/12/01 03:49:52;;;;;;;1.90;1.27;;;9.40;99.90;;;;;;5025763;28;20088;-86
2021/12/01 03:52:18;;;;;;;3.20;1.13;;;9.40;99.90;;;;;;5015364;28;20073;-86
2021/12/01 03:54:46;;;;;;;1.13;0.88;;;9.40;99.90;;;;;;5019048;28;20037;-85
2021/12/01 03:57:12;;;;;;;1.98;0.80;;;9.40;99.90;;;;;;5018956;28;20050;-85
2021/12/01 03:59:38;;;;;;;0.70;0.70;;;9.40;99.90;;;;;;5014606;28;20057;-86
2021/12/01 04:02:05;;;;;;;1.52;0.70;;;9.40;99.90;;;;;;5020508;28;20068;-86
2021/12/01 04:04:31;;;;;;;0.85;0.60;;;9.30;99.90;;;;;;5019579;28;20984;-86
2021/12/01 04:06:57;;;;;;;3.38;1.13;;;9.30;99.90;;;;;;5021571;28;20042;-86
2021/12/01 04:09:23;;;;;;;1.48;0.75;;;9.40;99.90;;;;;;5015034;28;20409;-86
2021/12/01 04:11:49;;;;;;;1.20;0.90;;;9.40;99.90;;;;;;5019896;28;20042;-86
2021/12/01 04:14:14;;;;;;;0.80;0.65;;;9.40;99.90;;;;;;5016420;28;20046;-86
2021/12/01 04:16:41;;;;;;;0.50;0.50;;;9.40;99.90;;;;;;5013602;28;20117;-86
2021/12/01 04:19:06;;;;;;;2.35;0.70;;;9.40;99.90;;;;;;5037590;28;20050;-85
2021/12/01 04:21:32;;;;;;;1.15;0.52;;;9.40;99.90;;;;;;5017250;28;20264;-86
2021/12/01 04:23:59;;;;;;;1.20;0.65;;;9.40;99.90;;;;;;5017100;28;20713;-86
2021/12/01 04:26:27;;;;;;;1.45;0.82;;;9.40;99.90;;;;;;5024280;28;20092;-86
2021/12/01 04:28:54;;;;;;;3.17;0.60;;;9.40;99.90;;;;;;5015014;28;20053;-86
2021/12/01 04:31:20;;;;;;;0.60;0.50;;;9.60;99.90;;;;;;5018124;28;20057;-86
2021/12/01 04:33:47;;;;;;;0.70;0.65;;;9.40;99.90;;;;;;5022376;28;20534;-86
2021/12/01 04:36:14;;;;;;;2.63;0.85;;;9.40;99.90;;;;;;5018358;28;20697;-86
2021/12/01 04:38:40;;;;;;;2.17;0.60;;;9.40;99.90;;;;;;5016999;28;20062;-86
2021/12/01 04:41:08;;;;;;;0.30;0.30;;;9.40;99.90;;;;;;5016792;28;20547;-86
2021/12/01 04:43:33;;;;;;;0.98;0.57;;;9.50;99.90;;;;;;5032801;28;20601;-86
2021/12/01 04:46:00;;;;;;;2.58;0.60;;;9.40;99.90;;;;;;5014213;28;20120;-85
2021/12/01 04:48:31;;;;;;;0.77;0.55;;;9.40;99.90;;;;;;5026067;28;20046;-86
2021/12/01 04:50:57;;;;;;;2.47;0.93;;;9.40;99.90;;;;;;5020484;28;20125;-86
2021/12/01 04:53:24;;;;;;;0.90;0.40;;;9.50;99.90;;;;;;5037358;28;20534;-86
2021/12/01 04:55:50;;;;;;;1.20;0.80;;;9.40;99.90;;;;;;5027084;28;20041;-86
2021/12/01 04:58:15;;;;;;;0.73;0.35;;;9.40;99.90;;;;;;5016649;28;20058;-86
2021/12/01 05:00:41;;;;;;;0.40;0.40;;;9.40;99.90;;;;;;5021132;28;20882;-86
2021/12/01 05:03:07;;;;;;;0.50;0.40;;;9.50;99.90;;;;;;5019931;28;20449;-86
2021/12/01 05:05:33;;;;;;;1.20;0.57;;;9.50;99.90;;;;;;5018320;28;20069;-86
2021/12/01 05:07:58;;;;;;;0.43;0.40;;;9.50;99.90;;;;;;5038434;28;20053;-86
2021/12/01 05:10:24;;;;;;;0.47;0.47;;;9.50;99.90;;;;;;5024167;28;20100;-85
2021/12/01 05:12:50;;;;;;;0.70;0.52;;;9.50;99.90;;;;;;5056131;28;20038;-86
2021/12/01 05:15:16;;;;;;;0.38;0.38;;;9.50;99.90;;;;;;5044983;28;20561;-86
2021/12/01 05:17:42;;;;;;;0.95;0.40;;;9.50;99.90;;;;;;5024464;28;20636;-86
2021/12/01 05:20:11;;;;;;;0.20;0.20;;;9.50;99.90;;;;;;5023986;28;20054;-86
2021/12/01 05:22:37;;;;;;;0.90;0.40;;;9.50;99.90;;;;;;5024205;28;20121;-86
2021/12/01 05:25:05;;;;;;;0.30;0.30;;;9.50;99.90;;;;;;5021378;28;20045;-86
2021/12/01 05:27:31;;;;;;;0.88;0.47;;;9.50;99.90;;;;;;5026689;28;20050;-86
2021/12/01 05:29:58;;;;;;;0.10;0.10;;;9.50;99.90;;;;;;5024657;28;20037;-85
2021/12/01 05:32:24;;;;;;;0.10;0.10;;;9.50;99.90;;;;;;5020483;28;20122;-86
2021/12/01 05:34:50;;;;;;;0.20;0.20;;;9.50;99.90;;;;;;5022229;28;20042;-86
2021/12/01 05:37:16;;;;;;;0.85;0.60;;;9.50;99.90;;;;;;5023147;28;20057;-86
2021/12/01 05:39:44;;;;;;;0.15;0.15;;;9.50;99.90;;;;;;5020051;28;20590;-86
2021/12/01 05:42:12;;;;;;;0.30;0.30;;;9.60;99.90;;;;;;5030030;28;20041;-86
2021/12/01 05:44:39;;;;;;;0.10;0.10;;;9.60;99.90;;;;;;5050509;28;20586;-85
2021/12/01 05:47:06;;;;;;;0.30;0.30;;;9.60;99.90;;;;;;5025233;28;20069;-86
2021/12/01 05:49:32;;;;;;;0.20;0.20;;;9.60;99.90;;;;;;5026509;28;20036;-86
2021/12/01 05:51:58;;;;;;;0.47;0.40;;;9.60;99.90;;;;;;5041739;28;20045;-86
2021/12/01 05:54:24;;;;;;;0.30;0.30;;;9.60;99.90;;;;;;5022968;28;20582;-86
2021/12/01 05:56:51;;;;;;;0.25;0.25;;;9.60;99.90;;;;;;5024334;28;20104;-86
2021/12/01 05:59:17;;;;;;;0.17;0.17;;;9.60;99.90;;;;;;5023556;28;20100;-86
2021/12/01 06:01:45;;;;;;;0.43;0.28;;;9.60;99.90;;;;;;5021508;28;20043;-86
2021/12/01 06:04:10;;;;;;;0.10;0.10;;;9.60;99.90;;;;;;5024067;28;20045;-86
2021/12/01 06:06:36;;;;;;;0.47;0.28;;;9.70;99.90;;;;;;5030666;28;20862;-86
2021/12/01 06:09:04;;;;;;;0.30;0.30;;;9.60;99.90;;;;;;5050959;28;20853;-86
2021/12/01 06:11:30;;;;;;;0.60;0.40;;;9.60;99.90;;;;;;5065342;28;20060;-86
2021/12/01 06:13:56;;;;;;;0.20;0.20;;;9.70;99.90;;;;;;5028624;28;20456;-86
2021/12/01 06:16:23;;;;;;;0.20;0.20;;;9.60;99.90;;;;;;5025417;28;20049;-86
2021/12/01 06:18:49;;;;;;;0.30;0.30;;;9.60;99.90;;;;;;5023355;28;20124;-86
2021/12/01 06:21:16;;;;;;;0.22;0.22;;;9.60;99.90;;;;;;5029285;28;20128;-86
2021/12/01 06:23:41;;;;;;;0.30;0.30;;;9.70;99.90;;;;;;5044320;28;20695;-86
2021/12/01 06:26:07;;;;;;;0.43;0.35;;;9.70;99.90;;;;;;5019350;28;20047;-86
2021/12/01 06:28:33;;;;;;;0.10;0.10;;;9.70;99.90;;;;;;5019767;28;20574;-86
2021/12/01 06:30:59;;;;;;;0.38;0.35;;;9.70;99.90;;;;;;5024305;28;20395;-86
2021/12/01 06:33:24;;;;;;;0.28;0.28;;;9.70;99.90;;;;;;5026918;28;20041;-86
2021/12/01 06:35:51;;;;;;;0.20;0.20;;;9.70;99.90;;;;;;5020854;28;20038;-86
2021/12/01 06:38:18;;;;;;;0.30;0.30;;;9.70;99.90;;;;;;5024051;28;20052;-86
2021/12/01 06:40:45;;;;;;;0.20;0.20;;;9.70;99.90;;;;;;5026059;28;20073;-86
2021/12/01 06:43:11;;;;;;;0.47;0.20;;;9.70;99.90;;;;;;5016177;28;20146;-86
2021/12/01 06:45:37;;;;;;;0.43;0.40;;;9.70;99.90;;;;;;5027250;28;20181;-86
2021/12/01 06:48:03;;;;;;;0.22;0.22;;;9.70;99.90;;;;;;5020236;28;20524;-86
2021/12/01 06:50:29;;;;;;;0.30;0.30;;;9.70;99.90;;;;;;5019058;28;20118;-86
2021/12/01 06:52:55;;;;;;;0.20;0.20;;;9.80;99.90;;;;;;5026034;28;20444;-87
2021/12/01 06:55:21;;;;;;;0.28;0.28;;;9.70;99.90;;;;;;5020771;28;20045;-86
2021/12/01 06:57:48;;;;;;;0.10;0.10;;;9.70;99.90;;;;;;5038290;28;20054;-90
2021/12/01 07:00:15;;;;;;;2.72;0.65;;;9.70;99.90;;;;;;5037445;28;20045;-86
2021/12/01 07:02:43;;;;;;;0.75;0.28;;;9.80;99.90;;;;;;5022411;28;20038;-86
2021/12/01 07:05:09;;;;;;;0.20;0.20;;;9.80;99.90;;;;;;5021748;28;20426;-86
2021/12/01 07:07:36;;;;;;;0.22;0.22;;;9.80;99.90;;;;;;5060940;28;20046;-87
2021/12/01 07:10:07;;;;;;;0.20;0.20;;;9.80;99.90;;;;;;5028487;28;20057;-87
2021/12/01 07:12:32;;;;;;;0.32;0.32;;;9.80;99.90;;;;;;5026664;28;20491;-86
2021/12/01 07:14:58;;;;;;;0.20;0.20;;;9.80;99.90;;;;;;5023649;28;20046;-86
2021/12/01 07:17:24;;;;;;;0.10;0.10;;;9.80;99.90;;;;;;5023962;28;20045;-87
2021/12/01 07:19:50;;;;;;;0.20;0.20;;;9.90;99.90;;;;;;5030458;28;20052;-88
2021/12/01 07:22:16;;;;;;;0.47;0.43;;;9.90;99.90;;;;;;5044877;28;20048;-87
2021/12/01 07:24:45;;;;;;;0.22;0.22;;;9.90;99.90;;;;;;5037577;28;20165;-87
2021/12/01 07:27:10;;;;;;;0.77;0.40;;;9.90;99.90;;;;;;5027304;28;20048;-88
2021/12/01 07:29:36;;;;;;;0.30;0.30;;;9.90;99.90;;;;;;5044965;28;20048;-87
2021/12/01 07:32:04;;;;;;;0.40;0.40;;;9.90;99.90;;;;;;5020041;28;20039;-87
2021/12/01 07:34:41;;;;;;;0.47;0.32;;;9.90;99.90;;;;;;5019962;28;20041;-87
2021/12/01 07:37:07;;;;;;;3.35;0.65;;;10.00;99.90;;;;;;5037964;28;20046;-92
2021/12/01 07:39:33;;;;;;;0.25;0.25;;;10.00;99.90;;;;;;5022457;28;20440;-92
2021/12/01 07:41:59;;;;;;;0.40;0.35;;;9.90;99.90;;;;;;5027928;28;20045;-92
2021/12/01 07:44:24;;;;;;;0.60;0.30;;;10.00;99.90;;;;;;5023039;28;20053;-92
2021/12/01 07:46:50;;;;;;;1.00;0.40;;;10.00;99.90;;;;;;5026129;28;20040;-91
2021/12/01 07:49:19;;;;;;;1.17;0.30;;;10.00;99.90;;;;;;5029506;28;20053;-90
2021/12/01 07:51:45;;;;;;;0.20;0.20;;;10.10;99.90;;;;;;5037539;28;20037;-87
2021/12/01 07:54:11;;;;;;;0.35;0.30;;;10.00;99.90;;;;;;5024629;28;20048;-87
2021/12/01 07:56:36;;;;;;;0.40;0.40;;;10.00;99.90;;;;;;5023321;28;20065;-88
2021/12/01 07:59:03;;;;;;;1.48;0.70;;;10.10;99.90;;;;;;5032725;28;20141;-88
2021/12/01 08:01:29;;;;;;;0.30;0.30;;;10.10;99.90;;;;;;5020203;28;20428;-87
2021/12/01 08:03:54;;;;;;;0.52;0.40;;;10.10;99.90;;;;;;5026648;28;20041;-92
2021/12/01 08:06:21;;;;;;;0.30;0.30;;;10.10;99.90;;;;;;5024234;28;20042;-86
2021/12/01 08:08:49;;;;;;;0.40;0.40;;;10.20;99.90;;;;;;5036916;28;20068;-85
2021/12/01 08:11:15;;;;;;;0.30;0.30;;;10.20;99.90;;;;;;5038803;28;20034;-86
2021/12/01 08:13:40;;;;;;;0.85;0.43;;;10.10;99.90;;;;;;5024826;28;20105;-86
2021/12/01 08:16:06;;;;;;;3.90;1.13;;;10.10;99.90;;;;;;5026658;28;20081;-86
2021/12/01 08:18:41;;;;;;;2.20;0.45;;;10.10;99.90;;;;;;5037776;28;20042;-85
2021/12/01 08:21:07;;;;;;;1.02;0.57;;;10.00;99.90;;;;;;5025259;28;20050;-86
2021/12/01 08:23:39;;;;;;;0.75;0.32;;;10.00;99.90;;;;;;5024472;28;20073;-86
2021/12/01 08:26:05;;;;;;;1.88;0.50;;;10.00;99.90;;;;;;5023208;28;20412;-85
2021/12/01 08:28:31;;;;;;;0.90;0.52;;;9.90;99.90;;;;;;5026880;28;20034;-86
2021/12/01 08:30:59;;;;;;;1.95;0.60;;;9.90;99.90;;;;;;5020386;28;20050;-85
2021/12/01 08:33:25;;;;;;;0.63;0.55;;;9.90;99.90;;;;;;5030446;28;20045;-86
2021/12/01 08:35:51;;;;;;;0.65;0.65;;;9.90;99.90;;;;;;5023271;28;20042;-85
2021/12/01 08:38:16;;;;;;;0.73;0.50;;;9.90;99.90;;;;;;5023318;28;20081;-86
2021/12/01 08:40:42;;;;;;;0.30;0.30;;;9.90;99.90;;;;;;5023106;28;20069;-86
2021/12/01 08:43:08;;;;;;;2.33;0.65;;;10.10;99.90;;;;;;5040085;28;20053;-86
2021/12/01 08:45:34;;;;;;;1.42;0.80;;;10.10;99.90;;;;;;5020324;28;20519;-86
2021/12/01 08:48:03;;;;;;;0.90;0.73;;;10.20;99.90;;;;;;5032255;28;20048;-85
2021/12/01 08:50:29;;;;;;;1.35;0.63;;;10.20;99.90;;;;;;5060998;28;20529;-85
2021/12/01 08:52:55;;;;;;;3.22;1.20;;;10.30;99.90;;;;;;5027578;28;20050;-86
2021/12/01 08:55:23;;;;;;;1.13;0.50;;;10.30;99.90;;;;;;5024118;28;20038;-85
2021/12/01 08:57:50;;;;;;;0.60;0.60;;;10.30;99.90;;;;;;5037142;28;20529;-86
2021/12/01 09:00:22;;;;;;;1.20;1.08;;;10.40;99.90;;;;;;5025343;28;20946;-85
2021/12/01 09:02:48;;;;;;;1.02;0.88;;;10.30;99.90;;;;;;5030048;28;20042;-85
2021/12/01 09:05:14;;;;;;;1.90;0.82;;;10.30;99.90;;;;;;5034407;28;20046;-86
2021/12/01 09:07:40;;;;;;;1.20;0.60;;;10.30;99.90;;;;;;5027755;28;20088;-86
2021/12/01 09:10:07;;;;;;;2.03;0.70;;;10.30;99.90;;;;;;5026642;28;20099;-86
2021/12/01 09:12:33;;;;;;;1.52;0.73;;;10.30;99.90;;;;;;5031548;28;20054;-86
2021/12/01 09:14:59;;;;;;;3.20;0.75;;;10.20;99.90;;;;;;5025104;28;20093;-86
2021/12/01 09:17:27;;;;;;;1.27;0.68;;;10.30;99.90;;;;;;5024091;28;20052;-86
2021/12/01 09:19:53;;;;;;;1.70;0.85;;;10.30;99.90;;;;;;5026743;28;20034;-84
2021/12/01 09:22:20;;;;;;;2.88;0.65;;;10.20;99.90;;;;;;5021905;28;20045;-86
2021/12/01 09:24:47;;;;;;;2.45;1.02;;;10.30;99.90;;;;;;5027213;28;20140;-86
2021/12/01 09:27:13;;;;;;;2.63;0.63;;;10.40;99.90;;;;;;5029935;28;20546;-86
2021/12/01 09:29:39;;;;;;;3.78;0.93;;;10.50;99.90;;;;;;5022405;28;20628;-86
2021/12/01 09:32:13;;;;;;;1.08;0.52;;;10.60;99.90;;;;;;5036664;28;20110;-86
2021/12/01 09:34:41;;;;;;;2.10;1.10;;;10.60;99.90;;;;;;5018405;28;20042;-86
2021/12/01 09:37:14;;;;;;;1.00;0.70;;;10.60;99.90;;;;;;5046627;28;20061;-86
2021/12/01 09:39:42;;;;;;;4.70;0.88;;;10.60;99.90;;;;;;5026925;28;20042;-85
2021/12/01 09:42:09;;;;;;;2.38;1.13;;;10.60;99.90;;;;;;5046010;28;20049;-86
2021/12/01 09:44:36;;;;;;;1.25;1.00;;;10.60;99.90;;;;;;5026648;28;20033;-86
2021/12/01 09:47:02;;;;;;;1.17;0.63;;;10.50;99.90;;;;;;5026227;28;20049;-86
2021/12/01 09:49:29;;;;;;;1.63;0.70;;;10.50;99.90;;;;;;5031169;28;20072;-86
2021/12/01 09:51:56;;;;;;;0.57;0.50;;;10.60;99.90;;;;;;5026071;28;20045;-85
2021/12/01 09:54:22;;;;;;;2.90;0.82;;;10.60;99.90;;;;;;5021973;28;20038;-86
2021/12/01 09:56:48;;;;;;;0.82;0.60;;;10.60;99.90;;;;;;5023545;28;20046;-84
2021/12/01 09:59:15;;;;;;;2.13;0.75;;;10.70;99.90;;;;;;5023127;28;20082;-86
2021/12/01 10:01:41;;;;;;;1.80;0.60;;;10.70;99.90;;;;;;5019480;28;20054;-85
2021/12/01 10:04:08;;;;;;;3.15;1.08;;;10.80;99.90;;;;;;5026049;28;20165;-86
2021/12/01 10:06:33;;;;;;;1.98;0.57;;;10.80;99.90;;;;;;5043580;28;20034;-85
2021/12/01 10:09:04;;;;;;;0.63;0.60;;;10.90;99.90;;;;;;5036173;28;20507;-85
2021/12/01 10:11:33;;;;;;;1.42;0.80;;;10.80;99.90;;;;;;5024692;28;20053;-84
2021/12/01 10:14:02;;;;;;;0.93;0.60;;;10.80;99.90;;;;;;5021075;28;20038;-86
2021/12/01 10:16:32;;;;;;;0.30;0.30;;;10.90;99.90;;;;;;5018619;28;20094;-84
2021/12/01 10:19:00;;;;;;;1.88;0.80;;;11.00;99.90;;;;;;5038227;28;20048;-86
2021/12/01 10:21:29;;;;;;;2.55;1.75;;;11.00;99.90;;;;;;5024801;28;20045;-85
2021/12/01 10:23:58;;;;;;;2.25;0.82;;;11.00;99.90;;;;;;5022406;28;20570;-85
2021/12/01 10:26:27;;;;;;;2.53;0.73;;;10.90;99.90;;;;;;5020535;28;20525;-87
2021/12/01 10:28:58;;;;;;;2.03;1.08;;;10.90;99.90;;;;;;5036922;28;20065;-86
2021/12/01 10:31:40;;;;;;;6.93;1.33;;;11.00;99.90;;;;;;5017834;28;20077;-86
2021/12/01 10:34:20;;;;;;;1.52;0.52;;;11.00;99.90;;;;;;5040204;28;20312;-86
2021/12/01 10:37:05;;;;;;;2.03;0.55;;;10.90;99.90;;;;;;5037512;28;20312;-86
2021/12/01 10:39:31;;;;;;;0.77;0.50;;;10.80;99.90;;;;;;5026018;28;20053;-85
2021/12/01 10:42:04;;;;;;;0.70;0.50;;;10.70;99.90;;;;;;5037520;28;20418;-86
2021/12/01 10:44:30;;;;;;;0.40;0.40;;;10.70;99.90;;;;;;5022544;28;20100;-86
2021/12/01 10:46:56;;;;;;;2.15;1.13;;;10.60;99.90;;;;;;5032085;28;20049;-85
2021/12/01 10:49:38;;;;;;;3.03;0.90;;;10.60;99.90;;;;;;5024904;28;20061;-86
2021/12/01 10:52:12;;;;;;;1.60;0.40;;;10.60;99.90;;;;;;5022047;28;20460;-85
2021/12/01 10:54:38;;;;;;;1.10;0.50;;;10.70;99.90;;;;;;5053391;28;20116;-86
2021/12/01 10:57:22;;;;;;;0.50;0.50;;;10.70;99.90;;;;;;5054320;28;20056;-85
2021/12/01 10:59:50;;;;;;;0.68;0.57;;;10.80;99.90;;;;;;5034214;28;20046;-86
2021/12/01 11:02:19;;;;;;;1.08;0.40;;;10.90;99.90;;;;;;5035201;28;20050;-86
2021/12/01 11:04:50;;;;;;;1.98;0.73;;;10.90;99.90;;;;;;5021800;28;20510;-86
2021/12/01 11:07:32;;;;;;;1.05;0.60;;;11.10;99.90;;;;;;5016325;28;20049;-85
2021/12/01 11:10:15;;;;;;;6.22;0.90;;;11.30;99.90;;;;;;5033562;28;20042;-86
2021/12/01 11:12:42;;;;;;;1.23;0.73;;;11.40;99.90;;;;;;5022989;28;20046;-85
2021/12/01 11:15:25;;;;;;;0.60;0.52;;;11.40;99.90;;;;;;5021863;28;20049;-86
2021/12/01 11:17:51;;;;;;;2.63;0.70;;;11.30;99.90;;;;;;5015053;28;21017;-86
2021/12/01 11:20:39;;;;;;;3.28;0.80;;;11.50;99.90;;;;;;5020234;28;20087;-86
2021/12/01 11:23:15;;;;;;;7.53;1.00;;;11.60;99.90;;;;;;5035461;28;20046;-86
2021/12/01 11:25:44;;;;;;;3.90;0.90;;;11.60;99.90;;;;;;5024623;28;20037;-85
2021/12/01 11:28:13;;;;;;;1.33;0.65;;;11.60;99.90;;;;;;5027393;28;20044;-85
2021/12/01 11:30:41;;;;;;;1.13;0.60;;;11.60;99.90;;;;;;5021729;28;20447;-85
2021/12/01 11:33:11;;;;;;;1.38;0.60;;;11.60;99.90;;;;;;5037507;28;20050;-85
2021/12/01 11:35:37;;;;;;;1.00;0.40;;;11.60;99.90;;;;;;5017964;28;20077;-86
2021/12/01 11:38:04;;;;;;;2.60;0.82;;;11.60;99.90;;;;;;5021519;28;20046;-86
2021/12/01 11:40:30;;;;;;;0.68;0.55;;;11.60;99.90;;;;;;5027993;28;20031;-85
2021/12/01 11:42:57;;;;;;;0.50;0.50;;;11.70;99.90;;;;;;5019216;28;20042;-86
2021/12/01 11:45:23;;;;;;;2.72;0.82;;;11.70;99.90;;;;;;5027451;28;20086;-85
2021/12/01 11:47:50;;;;;;;0.47;0.47;;;11.70;99.90;;;;;;5042335;28;20490;-85
2021/12/01 11:50:26;;;;;;;1.67;0.88;;;11.70;99.90;;;;;;5021205;28;20049;-85
2021/12/01 11:53:32;;;;;;;3.58;0.95;;;11.70;99.90;;;;;;5019811;28;20144;-84
2021/12/01 11:56:26;;;;;;;1.05;0.40;;;11.60;99.90;;;;;;5026033;28;20046;-85
2021/12/01 11:59:00;;;;;;;1.30;0.77;;;11.60;99.90;;;;;;5019315;28;20108;-85
2021/12/01 12:01:26;;;;;;;2.03;0.90;;;11.50;99.90;;;;;;5019878;28;20049;-85
2021/12/01 12:03:54;;;;;;;4.55;1.50;;;11.50;99.90;;;;;;5044757;28;20790;-85
2021/12/01 12:06:28;;;;;;;2.25;0.93;;;11.30;99.90;;;;;;5029304;28;20042;-86
2021/12/01 12:08:54;;;;;;;3.58;0.80;;;11.20;99.90;;;;;;5036452;28;20049;-85
2021/12/01 12:11:40;;;;;;;2.15;0.82;;;11.10;99.90;;;;;;5038691;28;20411;-85
2021/12/01 12:14:08;;;;;;;1.30;0.73;;;11.30;99.90;;;;;;5024532;28;20042;-85
2021/12/01 12:16:35;;;;;;;2.28;0.77;;;11.50;99.90;;;;;;5019392;28;20030;-85
2021/12/01 12:19:03;;;;;;;2.33;0.80;;;11.70;99.90;;;;;;5016555;28;20042;-85
2021/12/01 12:24:06;;;;;;;1.48;0.90;;;11.90;99.90;;;;;;5020112;28;20046;-84
2021/12/01 12:26:42;;;;;;;0.90;0.52;;;11.90;99.90;;;;;;5018968;28;20042;-85
2021/12/01 12:29:29;;;;;;;2.10;0.82;;;11.80;99.90;;;;;;5018760;28;20048;-84
2021/12/01 12:32:16;;;;;;;1.75;1.10;;;11.90;99.90;;;;;;5035156;28;20139;-86
2021/12/01 12:34:54;;;;;;;0.73;0.50;;;12.00;99.90;;;;;;5031010;28;20049;-88
2021/12/01 12:37:25;;;;;;;2.80;0.90;;;12.00;99.90;;;;;;5016723;28;20037;-86
2021/12/01 12:39:56;;;;;;;2.10;1.00;;;11.90;99.90;;;;;;5033200;28;20046;-86
2021/12/01 12:42:22;;;;;;;1.05;0.57;;;11.80;99.90;;;;;;5016489;28;20045;-84
2021/12/01 12:44:49;;;;;;;2.50;0.75;;;11.80;99.90;;;;;;5019539;28;20046;-88
2021/12/01 12:47:22;;;;;;;1.67;0.68;;;11.80;99.90;;;;;;5019493;28;20086;-87
2021/12/01 12:49:59;;;;;;;1.77;0.57;;;11.80;99.90;;;;;;5031885;28;20045;-87
2021/12/01 12:52:25;;;;;;;3.10;0.80;;;11.70;99.90;;;;;;5057618;28;20046;-87
2021/12/01 12:54:54;;;;;;;2.05;1.05;;;11.70;99.90;;;;;;5024641;28;20046;-86
2021/12/01 12:57:21;;;;;;;1.48;0.70;;;11.80;99.90;;;;;;5019187;28;20049;-88
2021/12/01 12:59:47;;;;;;;1.13;0.50;;;12.00;99.90;;;;;;5022680;28;20062;-88
2021/12/01 13:02:15;;;;;;;4.47;0.90;;;12.20;99.90;;;;;;5028750;28;20073;-87
2021/12/01 13:04:54;;;;;;;0.30;0.30;;;12.30;99.90;;;;;;5020332;28;20213;-88